Kellogg, Iowa
Current Conditions -  °F | °C
As of 10:55 AM on Monday 22 Dec 2014 (Local Time) from KTNU Reporting Station
Overcast Overcast  
Wind Chill: 29°   Ceiling: 600
Heat Index: 37°   Visibility: NA
Dew Point: 37°   Wind: 15mph
Humidity: 100%   Direction: 130°SE
Pressure: 29.62"   Gusts: NA
Location:  41.72°N, 92.91°W
Report Text: KTNU 221655Z AUTO 13013KT OVC006 03/03 A2962 RMK AO2 P0001
Loading
Personal Weather Stations






























Interactive Weather Map New forecast layout! Learn more

10-Day Weather Forecast

Advertisements
Track Severe Weather on mobile